Time;durP1;ratioP1;P1;durP2;ratioP2;P2;SDS_P1;SDS_P2;PMS_P1;PMS_P2;Temp;Humidity;BMP_temperature;BMP_pressure;BME280_temperature;BME280_humidity;BME280_pressure;Samples;Min_cycle;Max_cycle;Signal;HPM_P1;HPM_P2
2023/04/07 00:01:03;;;;;;;26.85;19.50;;;7.60;99.90;;;;;;5033449;28;20103;-81
2023/04/07 00:03:29;;;;;;;26.55;18.90;;;7.60;99.90;;;;;;5001202;28;20140;-81
2023/04/07 00:05:55;;;;;;;21.27;14.57;;;7.60;99.90;;;;;;5016453;28;20049;-81
2023/04/07 00:08:20;;;;;;;28.95;21.00;;;7.60;99.90;;;;;;5017394;28;20124;-82
2023/04/07 00:10:46;;;;;;;18.52;12.15;;;7.60;99.90;;;;;;5034148;28;20124;-82
2023/04/07 00:13:12;;;;;;;26.60;19.45;;;7.60;99.90;;;;;;5017672;28;20042;-82
2023/04/07 00:15:38;;;;;;;25.60;18.20;;;7.60;99.90;;;;;;5017181;28;20089;-81
2023/04/07 00:18:03;;;;;;;28.50;20.40;;;7.60;99.90;;;;;;5016838;28;20048;-81
2023/04/07 00:20:29;;;;;;;26.83;19.17;;;7.60;99.90;;;;;;5032802;28;20061;-82
2023/04/07 00:22:55;;;;;;;27.92;18.80;;;7.60;99.90;;;;;;5033399;28;20042;-81
2023/04/07 00:25:20;;;;;;;32.10;23.75;;;7.50;99.90;;;;;;5032323;28;20132;-81
2023/04/07 00:27:46;;;;;;;28.77;22.77;;;7.50;99.90;;;;;;5016148;28;20049;-81
2023/04/07 00:30:14;;;;;;;25.52;17.85;;;7.50;99.90;;;;;;5033208;28;20042;-81
2023/04/07 00:32:39;;;;;;;29.50;20.17;;;7.50;99.90;;;;;;5016014;28;20045;-81
2023/04/07 00:35:06;;;;;;;29.92;23.08;;;7.50;99.90;;;;;;5000266;28;20147;-81
2023/04/07 00:37:32;;;;;;;29.70;22.02;;;7.50;99.90;;;;;;5032840;28;20445;-82
2023/04/07 00:39:58;;;;;;;32.08;23.63;;;7.50;99.90;;;;;;5032816;28;20081;-81
2023/04/07 00:42:24;;;;;;;30.17;21.98;;;7.50;99.90;;;;;;5033346;28;20050;-81
2023/04/07 00:44:49;;;;;;;31.13;22.92;;;7.50;99.90;;;;;;5032710;28;20057;-80
2023/04/07 00:47:15;;;;;;;32.08;22.88;;;7.50;99.90;;;;;;5032760;28;20529;-80
2023/04/07 00:49:41;;;;;;;33.33;25.08;;;7.50;99.90;;;;;;4999921;28;20060;-80
2023/04/07 00:52:12;;;;;;;34.78;24.45;;;7.50;99.90;;;;;;5032514;28;20088;-80
2023/04/07 00:54:40;;;;;;;23.83;15.35;;;7.50;99.90;;;;;;5032567;28;20057;-82
2023/04/07 00:57:06;;;;;;;32.03;24.58;;;7.20;99.90;;;;;;5015791;28;20112;-81
2023/04/07 00:59:32;;;;;;;30.67;22.33;;;7.50;99.90;;;;;;5015800;28;20509;-80
2023/04/07 01:02:19;;;;;;;29.77;22.75;;;7.40;99.90;;;;;;5016238;28;20076;-80
2023/04/07 01:05:35;;;;;;;29.23;19.23;;;7.50;99.90;;;;;;5015652;28;20053;-81
2023/04/07 01:08:16;;;;;;;32.17;22.63;;;7.50;99.90;;;;;;4999696;28;20064;-81
2023/04/07 01:10:52;;;;;;;34.42;27.40;;;7.40;99.90;;;;;;5033154;28;20077;-81
2023/04/07 01:13:32;;;;;;;30.77;24.10;;;7.50;99.90;;;;;;5032020;28;20401;-80
2023/04/07 01:16:01;;;;;;;29.33;18.70;;;7.40;99.90;;;;;;5032295;28;20057;-80
2023/04/07 01:18:38;;;;;;;32.38;23.83;;;7.40;99.90;;;;;;5036260;28;20393;-80
2023/04/07 01:21:08;;;;;;;32.30;22.73;;;7.40;99.90;;;;;;5019919;28;20053;-80
2023/04/07 01:23:55;;;;;;;32.58;24.63;;;7.40;99.90;;;;;;5019748;28;20057;-81
2023/04/07 01:26:26;;;;;;;36.95;26.80;;;7.40;99.90;;;;;;5035991;28;20053;-80
2023/04/07 01:29:30;;;;;;;32.97;24.80;;;7.40;99.90;;;;;;5036101;28;20053;-80
2023/04/07 01:31:58;;;;;;;36.75;27.75;;;7.40;99.90;;;;;;5036108;28;20061;-81
2023/04/07 01:34:28;;;;;;;36.78;27.83;;;7.40;99.90;;;;;;5019391;28;20501;-82
2023/04/07 01:36:55;;;;;;;38.47;28.80;;;7.40;99.90;;;;;;5035636;28;20154;-81
2023/04/07 01:39:22;;;;;;;41.53;29.27;;;7.40;99.90;;;;;;5003021;28;20053;-80
2023/04/07 01:41:51;;;;;;;40.13;29.33;;;7.30;99.90;;;;;;5035906;28;20054;-80
2023/04/07 01:44:19;;;;;;;39.28;28.92;;;7.40;99.90;;;;;;5036028;28;20127;-80
2023/04/07 01:46:45;;;;;;;39.38;27.27;;;7.30;99.90;;;;;;5035687;28;20045;-81
2023/04/07 01:49:12;;;;;;;35.38;26.17;;;7.40;99.90;;;;;;5035711;28;20095;-80
2023/04/07 01:51:40;;;;;;;35.80;26.75;;;7.40;99.90;;;;;;5019137;28;20083;-82
2023/04/07 01:54:07;;;;;;;38.63;30.23;;;7.40;99.90;;;;;;5035568;28;20052;-80
2023/04/07 01:56:33;;;;;;;40.08;29.05;;;7.30;99.90;;;;;;5019206;28;20076;-82
2023/04/07 01:58:58;;;;;;;41.10;31.67;;;7.30;99.90;;;;;;5035145;28;20053;-81
2023/04/07 02:01:24;;;;;;;39.80;31.40;;;7.30;99.90;;;;;;5035599;28;20119;-81
2023/04/07 02:04:10;;;;;;;35.85;28.23;;;7.30;99.90;;;;;;5035656;28;20064;-80
2023/04/07 02:07:02;;;;;;;39.53;30.55;;;7.30;99.90;;;;;;5035420;28;20056;-81
2023/04/07 02:09:32;;;;;;;39.47;29.80;;;7.30;99.90;;;;;;5035479;28;20073;-81
2023/04/07 02:12:00;;;;;;;40.83;28.58;;;7.30;99.90;;;;;;5035330;28;20053;-82
2023/04/07 02:14:27;;;;;;;40.47;29.42;;;7.40;99.90;;;;;;5035118;28;20046;-81
2023/04/07 02:16:54;;;;;;;38.88;30.48;;;7.40;99.90;;;;;;5018569;28;20098;-81
2023/04/07 02:19:20;;;;;;;37.58;28.17;;;7.30;99.90;;;;;;5034973;28;20591;-80
2023/04/07 02:21:50;;;;;;;40.33;30.88;;;7.30;99.90;;;;;;5035072;28;20133;-81
2023/04/07 02:24:20;;;;;;;39.40;29.38;;;7.30;99.90;;;;;;5035144;28;20079;-81
2023/04/07 02:26:46;;;;;;;37.38;27.95;;;7.30;99.90;;;;;;5035162;28;20045;-81
2023/04/07 02:29:12;;;;;;;35.90;25.55;;;7.30;99.90;;;;;;5017862;28;20052;-81
2023/04/07 02:31:38;;;;;;;37.30;27.48;;;7.30;99.90;;;;;;5034831;28;20055;-81
2023/04/07 02:34:04;;;;;;;40.15;29.42;;;7.40;99.90;;;;;;5018324;28;20045;-82
2023/04/07 02:36:30;;;;;;;41.08;30.60;;;7.40;99.90;;;;;;5035276;28;20139;-82
2023/04/07 02:38:56;;;;;;;42.70;31.63;;;7.30;99.90;;;;;;5035840;28;20049;-82
2023/04/07 02:41:22;;;;;;;39.10;28.88;;;7.30;99.90;;;;;;5019282;28;20085;-83
2023/04/07 02:43:47;;;;;;;46.10;33.47;;;7.30;99.90;;;;;;5035480;28;20497;-83
2023/04/07 02:46:13;;;;;;;39.33;30.38;;;7.20;99.90;;;;;;5037554;28;20053;-81
2023/04/07 02:48:39;;;;;;;40.80;30.63;;;7.30;99.90;;;;;;5003825;28;20049;-80
2023/04/07 02:51:05;;;;;;;41.00;29.90;;;7.20;99.90;;;;;;5034692;28;20099;-82
2023/04/07 02:53:30;;;;;;;37.42;27.73;;;7.30;99.90;;;;;;5034439;28;20061;-81
2023/04/07 02:55:57;;;;;;;43.53;30.92;;;7.30;99.90;;;;;;5034659;28;20045;-83
2023/04/07 02:58:23;;;;;;;37.85;27.67;;;7.30;99.90;;;;;;5001937;28;20111;-83
2023/04/07 03:00:49;;;;;;;40.05;30.45;;;7.30;99.90;;;;;;5040073;28;20053;-84
2023/04/07 03:03:14;;;;;;;37.67;27.77;;;7.30;99.90;;;;;;5042007;28;20053;-84
2023/04/07 03:05:40;;;;;;;42.08;30.98;;;7.30;99.90;;;;;;5040818;28;20053;-85
2023/04/07 03:08:06;;;;;;;41.97;29.10;;;7.30;99.90;;;;;;5040215;28;20477;-84
2023/04/07 03:10:32;;;;;;;34.53;25.80;;;7.30;99.90;;;;;;5036015;28;20056;-83
2023/04/07 03:12:57;;;;;;;36.28;27.98;;;7.30;99.90;;;;;;5035922;28;20109;-84
2023/04/07 03:15:23;;;;;;;38.78;28.50;;;7.30;99.90;;;;;;5040317;28;20045;-84
2023/04/07 03:17:49;;;;;;;38.78;30.00;;;7.30;99.90;;;;;;5037546;28;20053;-84
2023/04/07 03:20:16;;;;;;;38.95;29.83;;;7.30;99.90;;;;;;5034648;28;20046;-83
2023/04/07 03:22:43;;;;;;;40.70;30.90;;;7.30;99.90;;;;;;5035739;28;20401;-84
2023/04/07 03:25:09;;;;;;;38.67;26.98;;;7.20;99.90;;;;;;5034797;28;20056;-83
2023/04/07 03:27:35;;;;;;;32.25;25.48;;;7.20;99.90;;;;;;5035312;28;20103;-83
2023/04/07 03:30:01;;;;;;;33.63;25.10;;;7.30;99.90;;;;;;5017751;28;20053;-83
2023/04/07 03:32:27;;;;;;;35.15;27.85;;;7.30;99.90;;;;;;5035434;28;20050;-85
2023/04/07 03:34:53;;;;;;;35.42;26.92;;;7.20;99.90;;;;;;5034612;28;20453;-85
2023/04/07 03:37:19;;;;;;;36.60;26.98;;;7.20;99.90;;;;;;5020642;28;20041;-85
2023/04/07 03:39:45;;;;;;;35.13;25.17;;;7.10;99.90;;;;;;5033872;28;20042;-85
2023/04/07 03:42:10;;;;;;;34.75;26.55;;;7.20;99.90;;;;;;5033748;28;20143;-84
2023/04/07 03:44:36;;;;;;;35.67;26.17;;;7.20;99.90;;;;;;5034254;28;20117;-85
2023/04/07 03:47:02;;;;;;;35.47;27.77;;;7.20;99.90;;;;;;5033884;28;20103;-84
2023/04/07 03:49:29;;;;;;;35.80;26.02;;;7.20;99.90;;;;;;5033887;28;20068;-84
2023/04/07 03:51:55;;;;;;;37.50;28.23;;;7.20;99.90;;;;;;5035654;28;20053;-84
2023/04/07 03:54:20;;;;;;;41.05;30.95;;;7.20;99.90;;;;;;5017739;28;20049;-84
2023/04/07 03:56:46;;;;;;;39.03;29.20;;;7.20;99.90;;;;;;5016874;28;20049;-85
2023/04/07 03:59:12;;;;;;;35.03;26.73;;;7.20;99.90;;;;;;5016677;28;20132;-84
2023/04/07 04:01:38;;;;;;;35.80;26.92;;;7.20;99.90;;;;;;5033330;28;20132;-84
2023/04/07 04:04:04;;;;;;;35.72;26.23;;;7.20;99.90;;;;;;5032924;28;20579;-84
2023/04/07 04:06:30;;;;;;;36.90;27.38;;;7.30;99.90;;;;;;5032983;28;20132;-83
2023/04/07 04:08:56;;;;;;;33.58;25.67;;;7.10;99.90;;;;;;5033333;28;20106;-84
2023/04/07 04:11:21;;;;;;;34.03;26.33;;;7.20;99.90;;;;;;5018109;28;20049;-84
2023/04/07 04:13:47;;;;;;;29.45;21.42;;;7.20;99.90;;;;;;5034949;28;20069;-83
2023/04/07 04:16:13;;;;;;;30.88;24.42;;;7.20;99.90;;;;;;5033008;28;20072;-85
2023/04/07 04:18:39;;;;;;;29.77;21.42;;;7.20;99.90;;;;;;5016629;28;20469;-83
2023/04/07 04:21:05;;;;;;;29.10;22.50;;;7.20;99.90;;;;;;5032401;28;20049;-82
2023/04/07 04:23:31;;;;;;;29.38;22.15;;;7.20;99.90;;;;;;5032899;28;20461;-83
2023/04/07 04:25:59;;;;;;;29.05;21.13;;;7.20;99.90;;;;;;5016761;28;20072;-83
2023/04/07 04:28:25;;;;;;;29.25;22.05;;;7.20;99.90;;;;;;5016855;28;20477;-83
2023/04/07 04:30:51;;;;;;;27.75;21.35;;;7.20;99.90;;;;;;5016359;28;20049;-83
2023/04/07 04:33:16;;;;;;;29.52;21.55;;;7.20;99.90;;;;;;5032718;28;20045;-83
2023/04/07 04:35:45;;;;;;;29.67;22.27;;;7.20;99.90;;;;;;5032469;28;20045;-84
2023/04/07 04:38:10;;;;;;;29.45;21.17;;;7.20;99.90;;;;;;5016474;28;20144;-83
2023/04/07 04:40:36;;;;;;;28.17;21.38;;;7.20;99.90;;;;;;5034320;28;20088;-83
2023/04/07 04:43:05;;;;;;;31.65;24.23;;;7.30;99.90;;;;;;5032077;28;20054;-83
2023/04/07 04:45:32;;;;;;;28.77;21.75;;;7.20;99.90;;;;;;5032754;28;20068;-83
2023/04/07 04:47:57;;;;;;;29.33;22.23;;;7.20;99.90;;;;;;5032640;28;20107;-84
2023/04/07 04:50:23;;;;;;;28.73;21.13;;;7.20;99.90;;;;;;5016359;28;20136;-84
2023/04/07 04:52:49;;;;;;;27.85;20.58;;;7.20;99.90;;;;;;5032046;28;20151;-83
2023/04/07 04:55:15;;;;;;;28.92;23.13;;;7.20;99.90;;;;;;5015891;28;20049;-82
2023/04/07 04:57:40;;;;;;;33.80;24.50;;;7.20;99.90;;;;;;5015448;28;20064;-83
2023/04/07 05:00:07;;;;;;;31.63;22.98;;;7.20;99.90;;;;;;5032269;28;20057;-83
2023/04/07 05:02:33;;;;;;;32.78;25.25;;;7.20;99.90;;;;;;5032328;28;20053;-84
2023/04/07 05:04:58;;;;;;;30.08;22.83;;;7.20;99.90;;;;;;5015601;28;20409;-83
2023/04/07 05:07:24;;;;;;;30.80;23.02;;;7.20;99.90;;;;;;5033419;28;20052;-83
2023/04/07 05:09:50;;;;;;;30.92;22.08;;;7.20;99.90;;;;;;5032076;28;20132;-82
2023/04/07 05:12:16;;;;;;;28.38;21.45;;;7.20;99.90;;;;;;5032058;28;20444;-82
2023/04/07 05:14:42;;;;;;;32.25;23.25;;;7.20;99.90;;;;;;4999257;28;20106;-83
2023/04/07 05:17:08;;;;;;;26.90;20.77;;;7.20;99.90;;;;;;5015961;28;20045;-83
2023/04/07 05:19:34;;;;;;;31.08;23.20;;;7.20;99.90;;;;;;5032406;28;20060;-83
2023/04/07 05:22:00;;;;;;;27.63;18.63;;;7.20;99.90;;;;;;5032578;28;20045;-82
2023/04/07 05:24:28;;;;;;;31.95;23.58;;;7.30;99.90;;;;;;5015883;28;20049;-83
2023/04/07 05:26:55;;;;;;;36.90;26.15;;;7.20;99.90;;;;;;5032295;28;20053;-83
2023/04/07 05:29:22;;;;;;;30.90;25.00;;;7.20;99.90;;;;;;5015736;28;20047;-83
2023/04/07 05:31:47;;;;;;;29.63;22.77;;;7.20;99.90;;;;;;5016062;28;20551;-83
2023/04/07 05:34:13;;;;;;;29.65;20.58;;;7.20;99.90;;;;;;5015659;28;20067;-84
2023/04/07 05:36:39;;;;;;;30.73;23.45;;;7.20;99.90;;;;;;4999294;28;20049;-82
2023/04/07 05:39:05;;;;;;;31.00;23.67;;;7.20;99.90;;;;;;5015767;28;20049;-83
2023/04/07 05:41:31;;;;;;;33.00;24.75;;;7.20;99.90;;;;;;5032149;28;20390;-83
2023/04/07 05:43:56;;;;;;;29.50;23.38;;;7.20;99.90;;;;;;5031511;28;20209;-83
2023/04/07 05:46:22;;;;;;;32.35;25.65;;;7.20;99.90;;;;;;5015255;28;20042;-83
2023/04/07 05:48:48;;;;;;;32.85;25.30;;;7.20;99.90;;;;;;5015639;28;20057;-82
2023/04/07 05:51:14;;;;;;;30.80;22.92;;;7.20;99.90;;;;;;5014930;28;20049;-84
2023/04/07 05:53:40;;;;;;;31.98;25.30;;;7.10;99.90;;;;;;5031985;28;20389;-83
2023/04/07 05:56:06;;;;;;;33.83;25.45;;;7.20;99.90;;;;;;5031976;28;20053;-83
2023/04/07 05:58:32;;;;;;;30.98;23.80;;;7.20;99.90;;;;;;5033048;28;20562;-82
2023/04/07 06:00:58;;;;;;;31.52;23.63;;;7.20;99.90;;;;;;5031642;28;20500;-82
2023/04/07 06:03:23;;;;;;;32.40;23.50;;;7.20;99.90;;;;;;5032358;28;20367;-83
2023/04/07 06:05:49;;;;;;;32.63;24.38;;;7.20;99.90;;;;;;5019076;28;20077;-82
2023/04/07 06:08:15;;;;;;;28.88;23.70;;;7.20;99.90;;;;;;5019036;28;20053;-83
2023/04/07 06:10:41;;;;;;;30.52;21.95;;;7.20;99.90;;;;;;5035453;28;20477;-82
2023/04/07 06:13:07;;;;;;;32.17;23.95;;;7.20;99.90;;;;;;5018813;28;20085;-82
2023/04/07 06:15:32;;;;;;;30.85;22.83;;;7.20;99.90;;;;;;5035076;28;20044;-83
2023/04/07 06:17:58;;;;;;;31.65;24.45;;;7.30;99.90;;;;;;5035063;28;20049;-83
2023/04/07 06:20:26;;;;;;;31.77;25.35;;;7.30;99.90;;;;;;5035224;28;20054;-82
2023/04/07 06:22:53;;;;;;;31.65;23.83;;;7.30;99.90;;;;;;5035162;28;20392;-82
2023/04/07 06:25:20;;;;;;;22.65;15.68;;;7.30;99.90;;;;;;5035330;28;20045;-82
2023/04/07 06:27:45;;;;;;;29.27;21.73;;;7.40;99.90;;;;;;5018701;28;20095;-84
2023/04/07 06:30:11;;;;;;;27.98;20.20;;;7.40;99.90;;;;;;5018733;28;20112;-81
2023/04/07 06:32:37;;;;;;;28.77;21.70;;;7.40;99.90;;;;;;5034758;28;20081;-82
2023/04/07 06:35:03;;;;;;;28.27;21.15;;;7.40;99.90;;;;;;5018216;28;20077;-82
2023/04/07 06:37:29;;;;;;;27.60;20.95;;;7.50;99.90;;;;;;5034645;28;20053;-82
2023/04/07 06:39:55;;;;;;;27.50;19.17;;;7.50;99.90;;;;;;5018178;28;20041;-81
2023/04/07 06:42:20;;;;;;;28.05;21.42;;;7.50;99.90;;;;;;5034801;28;20079;-81
2023/04/07 06:44:46;;;;;;;30.60;23.42;;;7.50;99.90;;;;;;5002035;28;20398;-82
2023/04/07 06:47:12;;;;;;;31.65;25.90;;;7.50;99.90;;;;;;5018335;28;20120;-81
2023/04/07 06:49:38;;;;;;;29.25;22.98;;;7.50;99.90;;;;;;5017675;28;20046;-81
2023/04/07 06:52:10;;;;;;;25.80;20.45;;;7.50;99.90;;;;;;5034824;28;20053;-83
2023/04/07 06:54:35;;;;;;;30.25;23.58;;;7.60;99.90;;;;;;5018410;28;20077;-82
2023/04/07 06:57:01;;;;;;;29.55;23.17;;;7.60;99.90;;;;;;5034281;28;20091;-81
2023/04/07 06:59:30;;;;;;;29.00;21.58;;;7.60;99.90;;;;;;5034539;28;20057;-81
2023/04/07 07:01:55;;;;;;;28.42;23.25;;;7.60;99.90;;;;;;5002032;28;20474;-82
2023/04/07 07:04:21;;;;;;;29.90;22.95;;;7.60;99.90;;;;;;5017901;28;20179;-83
2023/04/07 07:06:47;;;;;;;32.47;24.17;;;7.70;99.90;;;;;;5034480;28;20092;-83
2023/04/07 07:09:16;;;;;;;31.08;23.05;;;7.70;99.90;;;;;;5033817;28;20140;-82
2023/04/07 07:11:41;;;;;;;28.10;22.40;;;7.80;99.90;;;;;;5034335;28;20397;-81
2023/04/07 07:14:07;;;;;;;29.25;22.08;;;7.80;99.90;;;;;;5017647;28;20045;-81
2023/04/07 07:16:33;;;;;;;27.77;21.25;;;7.80;99.90;;;;;;5017245;28;20042;-82
2023/04/07 07:18:59;;;;;;;28.95;23.25;;;7.80;99.90;;;;;;5033680;28;20049;-81
2023/04/07 07:21:25;;;;;;;28.15;22.15;;;7.90;99.90;;;;;;5017615;28;20056;-82
2023/04/07 07:23:51;;;;;;;26.45;19.70;;;7.90;99.90;;;;;;5017371;28;20053;-82
2023/04/07 07:26:16;;;;;;;27.90;21.48;;;8.00;99.90;;;;;;5001355;28;20041;-82
2023/04/07 07:28:42;;;;;;;28.73;23.08;;;7.90;99.90;;;;;;5017557;28;20068;-82
2023/04/07 07:31:12;;;;;;;26.55;20.30;;;8.00;99.90;;;;;;5017542;28;20045;-81
2023/04/07 07:33:40;;;;;;;25.52;19.60;;;7.90;99.90;;;;;;5033546;28;20401;-81
2023/04/07 07:36:06;;;;;;;27.25;21.58;;;7.90;99.90;;;;;;5033873;28;20405;-82
2023/04/07 07:38:32;;;;;;;27.02;21.45;;;8.00;99.90;;;;;;5033888;28;20053;-81
2023/04/07 07:40:58;;;;;;;23.50;16.40;;;8.00;99.90;;;;;;5033825;28;20064;-81
2023/04/07 07:43:24;;;;;;;26.48;21.23;;;8.10;99.90;;;;;;5017320;28;20053;-82
2023/04/07 07:45:49;;;;;;;26.80;20.55;;;8.10;99.90;;;;;;5017310;28;20445;-81
2023/04/07 07:48:15;;;;;;;24.75;19.45;;;8.10;99.90;;;;;;5016910;28;20046;-81
2023/04/07 07:50:43;;;;;;;25.30;19.30;;;8.10;99.90;;;;;;5017108;28;20037;-81
2023/04/07 07:53:11;;;;;;;27.35;21.13;;;8.20;99.90;;;;;;5033461;28;20056;-82
2023/04/07 07:55:37;;;;;;;24.33;19.05;;;8.20;99.90;;;;;;5033186;28;20041;-81
2023/04/07 07:58:03;;;;;;;27.70;20.73;;;8.20;99.90;;;;;;5016617;28;20060;-81
2023/04/07 08:00:29;;;;;;;28.98;23.23;;;8.30;99.90;;;;;;5017026;28;20068;-82
2023/04/07 08:02:55;;;;;;;24.52;19.77;;;8.30;99.90;;;;;;4984558;28;20041;-81
2023/04/07 08:05:20;;;;;;;24.30;20.13;;;8.30;99.90;;;;;;5000575;28;20063;-81
2023/04/07 08:07:47;;;;;;;23.73;18.02;;;8.30;99.90;;;;;;5016844;28;20092;-82
2023/04/07 08:10:13;;;;;;;21.48;17.30;;;8.40;99.90;;;;;;5032993;28;20464;-81
2023/04/07 08:12:42;;;;;;;20.17;16.70;;;8.40;99.90;;;;;;5017170;28;20446;-81
2023/04/07 08:15:09;;;;;;;21.45;17.63;;;8.40;99.90;;;;;;5032855;28;20444;-81
2023/04/07 08:17:35;;;;;;;20.95;16.50;;;8.40;99.90;;;;;;5033107;28;20045;-82
2023/04/07 08:20:02;;;;;;;19.65;16.02;;;8.40;99.90;;;;;;5016641;28;20145;-82
2023/04/07 08:22:28;;;;;;;17.73;13.75;;;8.40;99.90;;;;;;5032876;28;20045;-80
2023/04/07 08:24:54;;;;;;;19.38;15.68;;;8.50;99.90;;;;;;5032939;28;20041;-81
2023/04/07 08:27:20;;;;;;;18.55;14.88;;;8.50;99.90;;;;;;5031859;28;20119;-81
2023/04/07 08:29:56;;;;;;;20.77;17.08;;;8.50;99.90;;;;;;5016023;28;20092;-81
2023/04/07 08:32:22;;;;;;;20.33;16.45;;;8.50;99.90;;;;;;5032931;28;20049;-81
2023/04/07 08:34:48;;;;;;;21.23;16.33;;;8.60;99.90;;;;;;5032426;28;20119;-82
2023/04/07 08:37:14;;;;;;;18.92;14.75;;;8.60;99.90;;;;;;5032433;28;20041;-81
2023/04/07 08:39:40;;;;;;;15.60;12.20;;;8.70;99.90;;;;;;5015903;28;20054;-81
2023/04/07 08:42:07;;;;;;;18.88;14.70;;;8.70;99.90;;;;;;5032558;28;20102;-81
2023/04/07 08:44:35;;;;;;;18.20;13.85;;;8.70;99.90;;;;;;5032667;28;20053;-82
2023/04/07 08:47:06;;;;;;;19.70;16.45;;;8.80;99.90;;;;;;5032376;28;20497;-81
2023/04/07 08:49:36;;;;;;;20.00;14.73;;;8.80;99.90;;;;;;5032716;28;20057;-81
2023/04/07 08:52:08;;;;;;;17.08;13.80;;;8.80;99.90;;;;;;5032056;28;20056;-80
2023/04/07 08:54:34;;;;;;;;;;;8.90;99.90;;;;;;5016399;28;20050;-81
2023/04/07 08:57:01;;;;;;;16.38;13.27;;;9.00;99.90;;;;;;5032385;28;19928;-83
2023/04/07 08:59:28;;;;;;;15.93;12.02;;;9.10;99.90;;;;;;5031999;28;20049;-81
2023/04/07 09:01:55;;;;;;;15.93;10.60;;;9.10;99.90;;;;;;5032323;28;20053;-81
2023/04/07 09:04:26;;;;;;;14.82;11.15;;;9.20;99.90;;;;;;5015319;28;20053;-82
2023/04/07 09:06:52;;;;;;;14.53;11.07;;;9.30;99.90;;;;;;5016118;28;20049;-81
2023/04/07 09:09:18;;;;;;;13.25;9.70;;;9.40;99.90;;;;;;5031880;28;20298;-81
2023/04/07 09:11:44;;;;;;;15.95;12.98;;;9.40;99.90;;;;;;5015956;28;20049;-81
2023/04/07 09:14:10;;;;;;;12.55;8.05;;;9.50;99.90;;;;;;4999630;28;20046;-82
2023/04/07 09:16:36;;;;;;;14.40;11.52;;;9.60;99.90;;;;;;5015608;28;20053;-81
2023/04/07 09:19:02;;;;;;;12.48;8.77;;;9.60;99.90;;;;;;5015398;28;20085;-82
2023/04/07 09:21:50;;;;;;;12.52;9.82;;;9.70;99.90;;;;;;5032201;28;20112;-80
2023/04/07 09:24:27;;;;;;;13.38;10.93;;;9.70;99.90;;;;;;5015305;28;20482;-81
2023/04/07 09:27:14;;;;;;;12.07;8.25;;;9.80;99.90;;;;;;5032193;28;20100;-81
2023/04/07 09:29:41;;;;;;;13.95;11.35;;;9.80;99.90;;;;;;5015771;28;20060;-81
2023/04/07 09:32:08;;;;;;;13.13;9.65;;;9.90;99.90;;;;;;5032066;28;20041;-81
2023/04/07 09:34:39;;;;;;;13.95;10.65;;;10.00;99.90;;;;;;4955319;28;20049;-80
2023/04/07 09:37:08;;;;;;;10.02;6.78;;;10.00;99.90;;;;;;5028939;28;20054;-81
2023/04/07 09:39:47;;;;;;;12.57;9.00;;;10.00;99.90;;;;;;5018404;28;20041;-81
2023/04/07 09:42:13;;;;;;;13.18;9.57;;;10.10;99.90;;;;;;5019574;28;20104;-80
2023/04/07 09:44:42;;;;;;;11.85;8.13;;;10.20;99.90;;;;;;5003123;28;20042;-80
2023/04/07 09:47:08;;;;;;;10.48;7.55;;;9.70;99.90;;;;;;5035864;28;20385;-82
2023/04/07 09:49:54;;;;;;;9.90;6.85;;;10.20;99.90;;;;;;5019351;28;20148;-82
2023/04/07 09:52:24;;;;;;;11.40;7.97;;;9.90;99.90;;;;;;5019328;28;20099;-82
2023/04/07 09:54:50;;;;;;;12.10;8.93;;;10.30;99.90;;;;;;5035309;28;20370;-82
2023/04/07 09:57:17;;;;;;;11.48;8.82;;;10.30;99.90;;;;;;5002859;28;20453;-80
2023/04/07 09:59:44;;;;;;;13.77;10.10;;;10.30;99.90;;;;;;5035694;28;20378;-80
2023/04/07 10:02:11;;;;;;;12.23;9.55;;;10.30;99.90;;;;;;5035682;28;20129;-80
2023/04/07 10:04:38;;;;;;;11.13;8.57;;;10.20;99.90;;;;;;5034931;28;20489;-82
2023/04/07 10:07:05;;;;;;;11.98;9.52;;;10.20;99.90;;;;;;5019128;28;20041;-80
2023/04/07 10:09:31;;;;;;;11.50;8.48;;;10.20;99.90;;;;;;5018837;28;20409;-80
2023/04/07 10:11:58;;;;;;;11.95;8.50;;;10.20;99.90;;;;;;5018619;28;20049;-81
2023/04/07 10:14:31;;;;;;;12.98;9.05;;;10.30;99.90;;;;;;5035367;28;20045;-80
2023/04/07 10:17:00;;;;;;;12.20;9.90;;;10.30;99.90;;;;;;5002285;28;20045;-82
2023/04/07 10:19:31;;;;;;;12.20;8.88;;;10.20;99.90;;;;;;5034954;28;20053;-80
2023/04/07 10:22:02;;;;;;;11.70;8.45;;;10.20;99.90;;;;;;5035231;28;20543;-80
2023/04/07 10:24:46;;;;;;;11.95;9.88;;;10.20;99.90;;;;;;5034945;28;20421;-80
2023/04/07 10:27:16;;;;;;;12.15;9.82;;;10.10;99.90;;;;;;5035233;28;20045;-80
2023/04/07 10:29:48;;;;;;;12.57;9.20;;;10.10;99.90;;;;;;5017977;28;20140;-80
2023/04/07 10:32:14;;;;;;;12.50;8.63;;;10.10;99.90;;;;;;5034858;28;20378;-81
2023/04/07 10:34:49;;;;;;;12.38;9.90;;;10.10;99.90;;;;;;5018110;28;20056;-80
2023/04/07 10:37:21;;;;;;;11.60;8.55;;;10.00;99.90;;;;;;5034856;28;20056;-81
2023/04/07 10:39:48;;;;;;;10.77;8.20;;;9.90;99.90;;;;;;5002840;28;20056;-80
2023/04/07 10:42:35;;;;;;;12.93;9.88;;;9.80;99.90;;;;;;5034942;28;20460;-80
2023/04/07 10:45:02;;;;;;;10.35;7.00;;;9.80;99.90;;;;;;5034924;28;20053;-80
2023/04/07 10:47:28;;;;;;;11.85;8.50;;;9.70;99.90;;;;;;5034836;28;20131;-80
2023/04/07 10:50:19;;;;;;;12.63;9.15;;;9.80;99.90;;;;;;5034132;28;20119;-82
2023/04/07 10:53:03;;;;;;;12.90;9.45;;;9.80;99.90;;;;;;5034598;28;20111;-80
2023/04/07 10:55:53;;;;;;;12.63;8.63;;;9.80;99.90;;;;;;5017793;28;20481;-80
2023/04/07 10:58:27;;;;;;;12.98;9.55;;;9.90;99.90;;;;;;5034223;28;20065;-79
2023/04/07 11:00:59;;;;;;;11.27;7.47;;;9.90;99.90;;;;;;5034522;28;20366;-81
2023/04/07 11:03:27;;;;;;;11.40;8.55;;;10.00;99.90;;;;;;5034388;28;20072;-80
2023/04/07 11:06:01;;;;;;;13.02;9.27;;;10.10;99.90;;;;;;5034275;28;20095;-80
2023/04/07 11:08:33;;;;;;;13.10;10.27;;;10.00;99.90;;;;;;5034311;28;20045;-80
2023/04/07 11:10:59;;;;;;;12.45;9.52;;;10.00;99.90;;;;;;5018033;28;20049;-81
2023/04/07 11:13:26;;;;;;;12.70;8.55;;;10.00;99.90;;;;;;5017806;28;20048;-80
2023/04/07 11:15:52;;;;;;;12.77;10.55;;;10.00;99.90;;;;;;5017498;28;20494;-81
2023/04/07 11:18:20;;;;;;;12.45;9.15;;;10.10;99.90;;;;;;5034081;28;20168;-81
2023/04/07 11:20:50;;;;;;;11.80;9.70;;;10.30;99.90;;;;;;5029301;28;20056;-81
2023/04/07 11:23:17;;;;;;;12.52;9.30;;;10.50;99.90;;;;;;5032137;28;20049;-80
2023/04/07 11:25:45;;;;;;;12.68;8.52;;;10.60;99.90;;;;;;5018284;28;20393;-80
2023/04/07 11:28:12;;;;;;;11.07;7.28;;;10.70;99.90;;;;;;5032875;28;20088;-80
2023/04/07 11:30:43;;;;;;;11.65;7.80;;;10.80;99.90;;;;;;5016228;28;20042;-81
2023/04/07 11:33:13;;;;;;;11.53;6.73;;;10.70;99.90;;;;;;5051334;28;20045;-80
2023/04/07 11:35:48;;;;;;;11.45;7.60;;;10.80;99.90;;;;;;5034390;28;20054;-81
2023/04/07 11:38:18;;;;;;;10.20;7.28;;;10.90;99.90;;;;;;5034562;28;20107;-81
2023/04/07 11:40:44;;;;;;;10.00;6.45;;;10.90;99.90;;;;;;5034119;28;20054;-80
2023/04/07 11:43:26;;;;;;;10.40;7.97;;;11.10;99.90;;;;;;5034174;28;20438;-81
2023/04/07 11:46:11;;;;;;;10.02;7.65;;;11.10;99.90;;;;;;5050715;28;20139;-80
2023/04/07 11:48:39;;;;;;;10.60;7.43;;;11.00;99.90;;;;;;5050769;28;20493;-80
2023/04/07 11:51:06;;;;;;;10.07;7.20;;;11.00;99.90;;;;;;5017390;28;20041;-81
2023/04/07 11:53:34;;;;;;;11.57;8.30;;;11.00;99.90;;;;;;4998450;28;20049;-81
2023/04/07 11:56:06;;;;;;;9.73;6.60;;;11.00;99.90;;;;;;5013834;28;20050;-81
2023/04/07 11:58:34;;;;;;;9.13;5.22;;;11.00;99.90;;;;;;4998127;28;20494;-81
2023/04/07 12:01:05;;;;;;;10.80;7.18;;;11.00;99.90;;;;;;5013605;28;20058;-80
2023/04/07 12:03:32;;;;;;;10.00;7.07;;;11.10;99.90;;;;;;4997945;28;20050;-80
2023/04/07 12:05:59;;;;;;;9.45;6.80;;;11.00;99.90;;;;;;5014168;28;20057;-81
2023/04/07 12:08:42;;;;;;;8.30;5.60;;;11.20;99.90;;;;;;5013688;28;20045;-80
2023/04/07 12:11:09;;;;;;;8.55;6.00;;;11.30;99.90;;;;;;5013792;28;20061;-81
2023/04/07 12:13:36;;;;;;;8.88;5.82;;;11.40;99.90;;;;;;4997651;28;20053;-81
2023/04/07 12:16:04;;;;;;;9.20;6.07;;;11.40;99.90;;;;;;5013819;28;20537;-80
2023/04/07 12:18:30;;;;;;;6.13;3.22;;;11.50;99.90;;;;;;4981962;28;20056;-79
2023/04/07 12:20:57;;;;;;;8.57;5.93;;;11.50;99.90;;;;;;5013874;28;20474;-80
2023/04/07 12:23:23;;;;;;;8.32;6.15;;;11.50;99.90;;;;;;4997316;28;20494;-81
2023/04/07 12:25:49;;;;;;;8.80;6.65;;;11.50;99.90;;;;;;5013588;28;20050;-77
2023/04/07 12:28:15;;;;;;;9.05;6.75;;;11.50;99.90;;;;;;5013635;28;20042;-78
2023/04/07 12:30:43;;;;;;;8.75;6.63;;;11.60;99.90;;;;;;5013826;28;20095;-80
2023/04/07 12:33:09;;;;;;;9.68;7.00;;;11.70;99.90;;;;;;5030711;28;20076;-80
2023/04/07 12:35:38;;;;;;;8.90;6.90;;;11.70;99.90;;;;;;5013486;28;20176;-80
2023/04/07 12:38:04;;;;;;;8.90;6.32;;;11.80;99.90;;;;;;5013766;28;20080;-80
2023/04/07 12:40:31;;;;;;;8.85;6.72;;;11.90;99.90;;;;;;5013597;28;20176;-81
2023/04/07 12:42:57;;;;;;;9.55;7.60;;;11.90;99.90;;;;;;5013341;28;20528;-80